»·PEaware :: N434EP KTIW-KFHR

N434EP :: KTIW-KFHR

FLIGHT INFORMATION

Flight Status: Arrived
Operator: Privately registered:
United States
More flights under this callsign
Pilot: Drew H. (3199)
Aircraft: BEECH AIRCRAFT BARON
(BE58)
More flights by this aircraft type
Origin: KTIW Tacoma Narrows
United States
Destination: KFHR Friday Harbor
United States
More flights between these airports :: More routes between these airports
Route: CARRO V165 DIGGN WATTR
File this flight plan on PilotEdge
Remarks:
Altitude:
(Current/Filed)
6,000ft
Speed:
(Current/Filed)
160kts
Departed: 10-Feb-19 07:24 PM
Arrived: 10-Feb-19 07:58 PM
Distance/Time
Traveled:
77nm/0:34
Distance/Time
To Go:
Arrived

Flight Plot

Page will automatically refresh every two minutes.

Flight plan parsing failed; only flown route is shown


Map Options




Map Legend


Flown Route
Filed Route
Departure Airport
Arrival Airport
Navaid (VOR, NDB)
Fix

Horizontal Profiles

Position Reports

Time Latitude Longitude Heading Altitude Ground
Speed
10-Feb-19 19:04 47.265483 -122.575844 300 295ft 0kts
10-Feb-19 19:05 47.265483 -122.575845 300 295ft 0kts
10-Feb-19 19:06 47.265483 -122.575845 300 295ft 0kts
10-Feb-19 19:07 47.265483 -122.575845 300 295ft 0kts
10-Feb-19 19:08 47.265483 -122.575845 300 295ft 0kts
10-Feb-19 19:09 47.265483 -122.575845 300 295ft 0kts
10-Feb-19 19:10 47.265483 -122.575845 300 295ft 0kts
10-Feb-19 19:11 47.265483 -122.575845 300 295ft 0kts
10-Feb-19 19:12 47.265483 -122.575845 300 295ft 0kts
10-Feb-19 19:13 47.265483 -122.575845 300 295ft 0kts
10-Feb-19 19:14 47.265483 -122.575845 300 295ft 0kts
10-Feb-19 19:15 47.265483 -122.575845 300 295ft 0kts
10-Feb-19 19:16 47.265483 -122.575845 300 295ft 0kts
10-Feb-19 19:17 47.270012 -122.575442 6 295ft 22kts
10-Feb-19 19:18 47.274511 -122.575488 276 295ft 11kts
10-Feb-19 19:19 47.274531 -122.575730 275 295ft 0kts
10-Feb-19 19:20 47.274531 -122.575730 275 295ft 0kts
10-Feb-19 19:21 47.274531 -122.575730 275 295ft 0kts
10-Feb-19 19:22 47.274542 -122.575883 276 295ft 4kts
10-Feb-19 19:23 47.260594 -122.580319 205 806ft 97kts
10-Feb-19 19:24 47.290109 -122.592879 6 916ft 176kts
10-Feb-19 19:25 47.312087 -122.644558 282 1670ft 159kts
10-Feb-19 19:26 47.319126 -122.709508 257 2353ft 155kts
10-Feb-19 19:27 47.311064 -122.769800 268 3310ft 150kts
10-Feb-19 19:28 47.344646 -122.795545 356 4200ft 146kts
10-Feb-19 19:29 47.382373 -122.802641 353 5196ft 127kts
10-Feb-19 19:30 47.416763 -122.808407 353 6033ft 126kts
10-Feb-19 19:31 47.454113 -122.815447 351 6313ft 148kts
10-Feb-19 19:32 47.495434 -122.822811 351 6338ft 150kts
10-Feb-19 19:33 47.537308 -122.828380 4 6372ft 154kts
10-Feb-19 19:34 47.579732 -122.819661 3 6402ft 153kts
10-Feb-19 19:35 47.622570 -122.811269 5 6360ft 155kts
10-Feb-19 19:36 47.664699 -122.818789 348 6360ft 152kts
10-Feb-19 19:37 47.706519 -122.829475 348 6351ft 152kts
10-Feb-19 19:38 47.748314 -122.840177 348 6337ft 152kts
10-Feb-19 19:39 47.790046 -122.850871 348 6331ft 151kts
10-Feb-19 19:40 47.829715 -122.861052 347 6658ft 139kts
10-Feb-19 19:41 47.868451 -122.871071 347 6772ft 146kts
10-Feb-19 19:42 47.908946 -122.881545 349 6700ft 147kts
10-Feb-19 19:43 47.953269 -122.892915 350 6617ft 177kts
10-Feb-19 19:44 48.004520 -122.906015 346 6515ft 188kts
10-Feb-19 19:45 48.054086 -122.925802 318 6515ft 175kts
10-Feb-19 19:46 48.105717 -122.938165 354 5891ft 201kts
10-Feb-19 19:47 48.161039 -122.949459 342 4879ft 192kts
10-Feb-19 19:48 48.213026 -122.969576 344 3861ft 193kts
10-Feb-19 19:49 48.266071 -122.990076 346 2908ft 193kts
10-Feb-19 19:50 48.318402 -123.008740 0 1989ft 188kts
10-Feb-19 19:51 48.367083 -123.012386 2 1927ft 170kts
10-Feb-19 19:52 48.410407 -123.015834 1 1907ft 135kts
10-Feb-19 19:53 48.451776 -123.018833 1 1510ft 171kts
10-Feb-19 19:54 48.496779 -123.015279 36 688ft 142kts
10-Feb-19 19:55 48.532290 -122.990221 357 659ft 158kts
10-Feb-19 19:56 48.531071 -123.025114 169 232ft 88kts
10-Feb-19 19:57 48.517588 -123.024056 192 116ft 21kts
10-Feb-19 19:58 48.521874 -123.025635 337 116ft 12kts
10-Feb-19 19:59 48.523610 -123.026047 124 116ft 0kts

Navigation Log

Ident Type
Flight plan parsing failed, navigation log unavailable